Torrent — 5BWL2 — position and weather

sailwx.info

Track history (hours):
 
Tides and Currents Weather Stations Pressure Air Temp Water Temp Dewpoint Dewpoint Depression Visibility Wind Speed Wind Dir Waves Ship Positions

Torrent

Last reported at 2017-Oct-17 13:24 UTC. Time now 2017-Nov-18 04:31 UTC.
Position N 45°29' W 073°31'.
Warning: this ship's position is 31 days out of date.

Length 185 m; draft 8.1 m.

Type: Cargo ship. MMSI: 209016000.

Date/timePositionNaut miles runAvg speedWind from/ knotsBaromVisibWave heightAir tempDewpointWater temp
2017-Oct-17 13:24N 45°29' W 073°31'1 3.8
2017-Oct-17 13:00N 45°28' W 073°30'5 3.1
2017-Oct-17 11:29N 45°24' W 073°35'3 4.6
2017-Oct-17 10:56N 45°24' W 073°38'3 5.7
2017-Oct-17 10:29N 45°25' W 073°42'5 9.8
2017-Oct-17 10:00N 45°23' W 073°48'612.5
2017-Oct-17 09:31N 45°20' W 073°55'1 1.3
2017-Oct-17 09:01N 45°19' W 073°55'1 1.6
2017-Oct-17 08:31N 45°18' W 073°56'0 0.7
2017-Oct-17 08:01N 45°18' W 073°56'3 4.9
2017-Oct-17 07:24N 45°15' W 073°58'410.6
2017-Oct-17 07:00N 45°13' W 074°03'  
2017-Oct-14 07:14N 45°29' W 083°31'312.7
2017-Oct-14 07:00N 45°30' W 083°34'712.8
2017-Oct-14 06:28N 45°33' W 083°43'612.9
2017-Oct-14 06:00N 45°35' W 083°51'5012.2
2017-Oct-14 01:54N 45°50' W 084°60'513.0
2017-Oct-14 01:30N 45°51' W 085°07'2412.8
2017-Oct-13 23:39N 45°51' W 085°41'  
Track history (hours):
 
Tides and Currents Weather Stations Pressure Air Temp Water Temp Dewpoint Dewpoint Depression Visibility Wind Speed Wind Dir Waves Ship Positions

Torrent

Last reported at 2017-Oct-17 13:24 UTC. Time now 2017-Nov-18 04:31 UTC.
Position N 45°29' W 073°31'.
Warning: this ship's position is 31 days out of date.

Length 185 m; draft 8.1 m.

Type: Cargo ship. MMSI: 209016000.

Date/timePositionNaut miles runAvg speedWind from/ knotsBaromVisibWave heightAir tempDewpointWater temp
2017-Oct-17 13:24N 45°29' W 073°31'1 3.8
2017-Oct-17 13:00N 45°28' W 073°30'5 3.1
2017-Oct-17 11:29N 45°24' W 073°35'3 4.6
2017-Oct-17 10:56N 45°24' W 073°38'3 5.7
2017-Oct-17 10:29N 45°25' W 073°42'5 9.8
2017-Oct-17 10:00N 45°23' W 073°48'612.5
2017-Oct-17 09:31N 45°20' W 073°55'1 1.3
2017-Oct-17 09:01N 45°19' W 073°55'1 1.6
2017-Oct-17 08:31N 45°18' W 073°56'0 0.7
2017-Oct-17 08:01N 45°18' W 073°56'3 4.9
2017-Oct-17 07:24N 45°15' W 073°58'410.6
2017-Oct-17 07:00N 45°13' W 074°03'  
2017-Oct-14 07:14N 45°29' W 083°31'312.7
2017-Oct-14 07:00N 45°30' W 083°34'712.8
2017-Oct-14 06:28N 45°33' W 083°43'612.9
2017-Oct-14 06:00N 45°35' W 083°51'5012.2
2017-Oct-14 01:54N 45°50' W 084°60'513.0
2017-Oct-14 01:30N 45°51' W 085°07'2412.8
2017-Oct-13 23:39N 45°51' W 085°41'  

Dump ship's entire track history